Weather observations for the past three days for
Dayton, Cox Dayton International Airport
Metric (Imperial)
Date Time (edt) Wind (kph) Vis. (km) Weather Sky Cond. Temperature (ºC) Relative Humidity Wind Chill (°C) Heat Index (°C) Pressure Precipitation (cm)
Air Dwpt 6 hour altimeter (cm) sea level (mb) 1 hr 3 hr 6 hr
Max. Min.
09 14:56 SW 31 G 41 16.09 A Few Clouds FEW035 20.6 11.7 57% 75.59 1007.5
09 13:56 SW 28 G 41 16.09 Mostly Cloudy BKN033 19.4 11.7 19.4 12.2 61% 75.62 1007.9
09 12:56 SW 26 G 37 16.09 Mostly Cloudy SCT030 BKN034 18.3 11.1 63% 75.64 1008.2
09 11:56 SW 24 G 37 16.09 Mostly Cloudy BKN026 BKN032 17.2 11.7 70% 75.67 1008.4
09 10:56 SW 26 16.09 Mostly Cloudy SCT020 BKN028 16.1 11.1 72% 75.64 1008.2
09 09:56 SW 22 16.09 Partly Cloudy FEW006 SCT014 SCT030 15 11.1 78% 75.62 1008.0
09 08:56 SW 13 16.09 Partly Cloudy FEW004 SCT030 SCT080 13.3 11.1 87% 75.64 1008.2
09 07:56 W 11 16.09 Mostly Cloudy SCT006 SCT030 BKN120 12.2 11.1 12.2 11.7 93% 75.64 1008.1 0.64
09 06:56 SW 17 16.09 Light Rain FEW031 OVC070 11.7 11.1 96% 75.57 1007.3 0.08
09 05:56 SW 17 16.09 Light Rain FEW040 BKN050 OVC080 11.7 10.6 93% 75.62 1007.7 0.03
09 04:56 SW 19 12.87 Light Rain BKN060 OVC070 11.7 10.6 93% 75.62 1008.0 0.23 0.53
09 03:56 W 26 16.09 Light Rain OVC065 12.2 10.6 90% 75.64 1008.3 0.15
09 02:56 SW 22 12.87 Light Rain OVC060 12.2 11.1 93% 75.69 1008.8 0.15
09 01:56 SW 13 11.27 Light Rain OVC065 12.2 11.1 14.4 12.2 93% 75.72 1009.3 0.15 0.64
09 00:56 W 20 14.48 Light Rain OVC060 12.2 11.1 93% 75.77 1009.7 0.15
08 23:56 W 20 14.48 Light Rain OVC065 12.2 10.6 90% 75.77 1010.0 0.13
08 22:56 W 17 9.66 Rain Fog/Mist OVC060 12.2 10.6 90% 75.84 1010.9 0.13 0.2
08 21:56 W 9 11.27 Light Rain OVC060 12.2 10.6 90% 75.82 1010.5 0.08
08 20:56 NW 6 16.09 Light Rain BKN065 OVC075 12.8 10 83% 75.79 1010.4
08 19:56 W 15 16.09 Light Rain BKN065 OVC080 14.4 8.9 19.4 14.4 70% 75.77 1010.2
08 18:56 S 9 16.09 Overcast BKN080 OVC095 16.1 6.7 54% 75.74 1009.7
08 17:56 SW 11 16.09 Light Rain FEW060 SCT080 OVC095 16.1 6.7 54% 75.74 1009.6
08 16:56 W 19 16.09 Overcast FEW055 OVC095 17.2 5.6 47% 75.77 1010.0
08 15:56 SW 31 G 46 16.09 Overcast FEW055 OVC090 17.8 4.4 41% 75.82 1010.6
08 14:56 SW 33 G 50 16.09 Mostly Cloudy and Breezy BKN090 BKN110 18.9 5 40% 75.84 1011.0
08 13:56 SW 31 16.09 Overcast SCT060 OVC095 17.2 5 19.4 9.4 45% 75.9 1011.9
08 12:56 W 24 G 37 16.09 Mostly Cloudy FEW055 BKN090 18.3 5.6 43% 75.97 1012.7
08 11:56 SW 26 G 43 16.09 Mostly Cloudy BKN090 BKN110 17.2 5 45% 76.02 1013.2
08 10:56 W 31 G 43 16.09 Mostly Cloudy FEW045 BKN095 BKN150 15.6 4.4 48% 76.05 1013.8
08 09:56 W 22 16.09 Mostly Cloudy FEW065 SCT100 BKN120 15 3.3 46% 76.07 1014.2
08 08:56 W 15 16.09 Mostly Cloudy SCT065 BKN130 11.7 3.3 57% 76.07 1014.2
08 07:56 SW 13 16.09 Mostly Cloudy BKN120 9.4 2.8 9.4 7.8 64% 8 76.07 1014.2
08 06:56 SW 17 16.09 Mostly Cloudy BKN110 8.3 2.2 66% 6 76.02 1013.7
08 05:56 SW 17 16.09 Mostly Cloudy BKN120 8.3 1.7 63% 6 76.02 1013.4
08 04:56 SW 17 16.09 A Few Clouds FEW085 7.8 1.1 63% 5 76.02 1013.7
08 03:56 SW 19 16.09 A Few Clouds FEW085 8.3 1.1 61% 6 76.02 1013.7
08 02:56 SW 17 16.09 Partly Cloudy FEW065 SCT085 8.9 1.1 58% 7 76.05 1013.9
08 01:56 SW 19 16.09 Partly Cloudy FEW080 SCT095 8.9 0.6 11.7 8.9 56% 6 76.05 1014.1
08 00:56 SW 17 16.09 Mostly Cloudy SCT080 BKN100 10 0.6 52% 8 76.07 1014.3
07 23:56 SW 9 16.09 Mostly Cloudy SCT080 BKN100 10.6 0.6 50% 76.07 1014.2
07 22:56 SW 11 16.09 Mostly Cloudy SCT075 BKN100 10.6 1.7 54% 76.07 1014.4
07 21:56 SW 11 16.09 Mostly Cloudy SCT075 BKN090 BKN110 11.1 0 47% 76.05 1014.0
07 20:56 SW 11 16.09 Mostly Cloudy SCT070 BKN080 BKN110 11.1 0 47% 76.05 1014.0
07 19:56 W 11 16.09 A Few Clouds FEW070 FEW085 11.7 0.6 15 11.7 47% 76.02 1013.9
07 18:56 NW 13 16.09 Partly Cloudy SCT070 SCT080 13.9 -1.7 34% 76.05 1013.9
07 17:56 NW 17 16.09 Partly Cloudy SCT070 SCT080 14.4 -1.1 35% 76.05 1014.1
07 16:56 NW 24 16.09 Partly Cloudy SCT070 14.4 -0.6 36% 76.07 1014.2
07 15:56 NW 19 G 33 16.09 Partly Cloudy SCT060 13.9 -0.6 37% 76.05 1014.1
07 14:56 NW 24 G 37 16.09 Partly Cloudy SCT060 13.9 -0.6 37% 76.1 1014.6
07 13:56 N 22 G 41 16.09 Partly Cloudy SCT055 SCT250 13.3 0 13.3 6.1 40% 76.12 1015.0
07 12:56 W 28 G 41 16.09 A Few Clouds FEW250 12.2 -1.1 40% 76.15 1015.6
07 11:56 NW 24 16.09 A Few Clouds FEW250 11.1 -1.7 41% 76.17 1015.9
07 10:56 NW 24 G 31 16.09 A Few Clouds FEW170 FEW250 10.6 -1.1 45% 76.17 1015.6
07 09:56 NW 17 16.09 Partly Cloudy SCT170 SCT250 9.4 -1.7 46% 7 76.17 1015.7
07 08:56 NW 13 16.09 Partly Cloudy FEW060 SCT170 8.3 -0.6 54% 6 76.17 1015.7
07 07:56 W 13 16.09 A Few Clouds FEW060 FEW200 6.1 0.6 7.2 4.4 68% 4 76.15 1015.6
07 06:56 NW 13 16.09 A Few Clouds FEW200 4.4 0 73% 2 76.15 1015.4
07 05:56 NW 11 16.09 A Few Clouds FEW250 5 0.6 73% 3 76.12 1015.1
07 04:56 W 11 16.09 Fair CLR 5 1.1 76% 3 76.1 1014.9
07 03:56 W 11 16.09 Fair CLR 6.1 1.1 71% 4 76.1 1014.7
07 02:56 W 11 16.09 A Few Clouds FEW060 6.7 1.7 71% 5 76.1 1014.5
07 01:56 W 9 16.09 A Few Clouds FEW065 5.6 2.2 12.2 4.4 79% 4 76.1 1014.9
07 00:56 W 9 16.09 A Few Clouds FEW065 6.1 2.8 80% 4 76.12 1015.1
06 23:56 SW 7 16.09 A Few Clouds FEW065 5.6 2.2 79% 4 76.12 1015.0
06 22:56 Calm 16.09 Partly Cloudy SCT065 9.4 1.7 59% 76.12 1015.0
06 21:56 Calm 16.09 Partly Cloudy SCT080 9.4 1.7 59% 76.1 1014.8
06 20:56 NW 7 16.09 Mostly Cloudy BKN080 10.6 1.1 52% 76.07 1014.5
06 19:56 NW 13 16.09 Mostly Cloudy FEW050 BKN080 BKN095 12.2 1.7 13.3 12.2 49% 76.05 1013.9
06 18:56 NW 11 16.09 Overcast FEW050 OVC085 12.8 1.7 47% 76.05 1013.8
06 17:56 NW 11 16.09 Overcast FEW049 OVC085 12.8 1.7 47% 76.05 1014.1
06 16:56 NW 9 16.09 Overcast FEW046 OVC085 12.2 1.7 49% 76.02 1013.7
06 15:56 NW 11 16.09 Overcast FEW044 OVC080 12.8 1.7 47% 76.02 1013.6
Date Time (edt) Wind (kph) Vis. (km) Weather Sky Cond. Air Dwpt Max. Min. Relative Humidity Wind Chill (°C) Heat Index (°C) altimeter (cm) sea level (mb) 1 hr 3 hr 6 hr
6 hour
Temperature (ºC) Pressure Precipitation (cm)